Terminal Aerodrome Forecast
Issued by NWS

Home | Current Version | Previous Version | Text Only | Print | Product List | Glossary Off
Versions: 1 2 3 4 5 6 7 8 9 10 11 12 13 14 15 16 17 18

000
FTUS43 KGRB 312334
TAFCWA
TAF
KCWA 312334Z 0100/0124 21006KT P6SM SCT020
     FM010200 VRB03KT P6SM SKC
     FM010400 VRB03KT 5SM BR SCT012
     FM010900 VRB02KT 4SM BR SCT004 BKN012
      TEMPO 0110/0114 1 1/2SM BR BKN004
     FM011400 22006KT P6SM FEW006 SCT012
     FM011800 21010G15KT P6SM SCT200=

USA.gov is the U.S. government's official web portal to all federal, state and local government web resources and services.